sensor_id;sensor_type;location;lat;lon;timestamp;pressure;altitude;pressure_sealevel;temperature;humidity
51315;BME280;65787;59.922;10.742;2022-12-18T00:01:28;100854.69;;;-3.09;88.12
51315;BME280;65787;59.922;10.742;2022-12-18T00:03:54;100843.25;;;-3.08;88.01
51315;BME280;65787;59.922;10.742;2022-12-18T00:06:23;100828.91;;;-3.17;88.55
51315;BME280;65787;59.922;10.742;2022-12-18T00:08:48;100856.09;;;-3.03;88.81
51315;BME280;65787;59.922;10.742;2022-12-18T00:11:14;100847.94;;;-2.99;88.54
51315;BME280;65787;59.922;10.742;2022-12-18T00:13:40;100840.72;;;-2.95;89.03
51315;BME280;65787;59.922;10.742;2022-12-18T00:16:09;100830.72;;;-2.90;88.70
51315;BME280;65787;59.922;10.742;2022-12-18T00:18:35;100840.22;;;-2.87;89.09
51315;BME280;65787;59.922;10.742;2022-12-18T00:21:02;100844.59;;;-2.88;88.75
51315;BME280;65787;59.922;10.742;2022-12-18T00:23:28;100835.88;;;-2.88;88.49
51315;BME280;65787;59.922;10.742;2022-12-18T00:25:53;100833.16;;;-2.87;88.37
51315;BME280;65787;59.922;10.742;2022-12-18T00:28:21;100818.97;;;-2.84;89.16
51315;BME280;65787;59.922;10.742;2022-12-18T00:30:46;100821.41;;;-2.81;89.32
51315;BME280;65787;59.922;10.742;2022-12-18T00:33:11;100824.78;;;-2.79;89.64
51315;BME280;65787;59.922;10.742;2022-12-18T00:35:37;100818.59;;;-2.78;89.15
51315;BME280;65787;59.922;10.742;2022-12-18T00:38:02;100822.06;;;-2.78;89.12
51315;BME280;65787;59.922;10.742;2022-12-18T00:40:27;100822.81;;;-2.76;88.77
51315;BME280;65787;59.922;10.742;2022-12-18T00:42:53;100831.44;;;-2.74;88.48
51315;BME280;65787;59.922;10.742;2022-12-18T00:45:22;100824.38;;;-2.73;88.79
51315;BME280;65787;59.922;10.742;2022-12-18T00:47:50;100822.63;;;-2.73;89.44
51315;BME280;65787;59.922;10.742;2022-12-18T00:50:15;100826.91;;;-2.72;88.97
51315;BME280;65787;59.922;10.742;2022-12-18T00:52:41;100814.50;;;-2.69;88.60
51315;BME280;65787;59.922;10.742;2022-12-18T00:55:06;100821.38;;;-2.67;88.64
51315;BME280;65787;59.922;10.742;2022-12-18T00:57:31;100816.88;;;-2.65;89.26
51315;BME280;65787;59.922;10.742;2022-12-18T00:59:57;100819.50;;;-2.65;88.76
51315;BME280;65787;59.922;10.742;2022-12-18T01:02:22;100817.59;;;-2.63;88.82
51315;BME280;65787;59.922;10.742;2022-12-18T01:04:48;100830.66;;;-2.61;88.61
51315;BME280;65787;59.922;10.742;2022-12-18T01:07:13;100821.94;;;-2.62;88.46
51315;BME280;65787;59.922;10.742;2022-12-18T01:09:38;100826.03;;;-2.58;88.85
51315;BME280;65787;59.922;10.742;2022-12-18T01:12:03;100822.44;;;-2.57;88.95
51315;BME280;65787;59.922;10.742;2022-12-18T01:14:29;100809.31;;;-2.57;88.96
51315;BME280;65787;59.922;10.742;2022-12-18T01:16:54;100807.53;;;-2.56;89.05
51315;BME280;65787;59.922;10.742;2022-12-18T01:19:19;100808.38;;;-2.56;89.27
51315;BME280;65787;59.922;10.742;2022-12-18T01:21:44;100808.94;;;-2.50;88.78
51315;BME280;65787;59.922;10.742;2022-12-18T01:24:10;100808.69;;;-2.47;89.86
51315;BME280;65787;59.922;10.742;2022-12-18T01:26:39;100825.22;;;-2.45;88.90
51315;BME280;65787;59.922;10.742;2022-12-18T01:29:04;100819.66;;;-2.41;89.93
51315;BME280;65787;59.922;10.742;2022-12-18T01:31:30;100811.47;;;-2.36;89.36
51315;BME280;65787;59.922;10.742;2022-12-18T01:33:56;100820.00;;;-2.33;89.73
51315;BME280;65787;59.922;10.742;2022-12-18T01:36:22;100817.25;;;-2.31;89.09
51315;BME280;65787;59.922;10.742;2022-12-18T01:38:48;100815.47;;;-2.30;89.56
51315;BME280;65787;59.922;10.742;2022-12-18T01:41:15;100805.81;;;-2.30;89.10
51315;BME280;65787;59.922;10.742;2022-12-18T01:43:47;100803.81;;;-2.26;89.13
51315;BME280;65787;59.922;10.742;2022-12-18T01:46:12;100798.25;;;-2.22;89.47
51315;BME280;65787;59.922;10.742;2022-12-18T01:48:38;100796.34;;;-2.20;90.16
51315;BME280;65787;59.922;10.742;2022-12-18T01:51:03;100794.16;;;-2.13;90.85
51315;BME280;65787;59.922;10.742;2022-12-18T01:53:29;100785.94;;;-2.08;90.46
51315;BME280;65787;59.922;10.742;2022-12-18T01:55:56;100778.56;;;-2.03;90.17
51315;BME280;65787;59.922;10.742;2022-12-18T01:58:24;100780.28;;;-2.02;90.87
51315;BME280;65787;59.922;10.742;2022-12-18T02:00:54;100781.22;;;-2.03;90.62
51315;BME280;65787;59.922;10.742;2022-12-18T02:03:19;100782.19;;;-2.04;90.39
51315;BME280;65787;59.922;10.742;2022-12-18T02:05:50;100770.03;;;-2.07;90.32
51315;BME280;65787;59.922;10.742;2022-12-18T02:08:26;100763.00;;;-2.06;90.10
51315;BME280;65787;59.922;10.742;2022-12-18T02:11:05;100768.88;;;-2.03;90.16
51315;BME280;65787;59.922;10.742;2022-12-18T02:16:19;100771.53;;;-2.03;90.00
51315;BME280;65787;59.922;10.742;2022-12-18T02:18:47;100766.38;;;-2.04;90.84
51315;BME280;65787;59.922;10.742;2022-12-18T02:26:22;100760.06;;;-2.02;91.79
51315;BME280;65787;59.922;10.742;2022-12-18T02:28:52;100761.84;;;-2.02;91.85
51315;BME280;65787;59.922;10.742;2022-12-18T02:31:21;100750.69;;;-2.06;91.61
51315;BME280;65787;59.922;10.742;2022-12-18T02:33:48;100753.53;;;-2.09;91.52
51315;BME280;65787;59.922;10.742;2022-12-18T02:36:14;100743.00;;;-2.09;91.81
51315;BME280;65787;59.922;10.742;2022-12-18T02:38:41;100756.34;;;-2.12;90.84
51315;BME280;65787;59.922;10.742;2022-12-18T02:41:07;100760.78;;;-2.12;91.57
51315;BME280;65787;59.922;10.742;2022-12-18T02:43:32;100761.75;;;-2.13;92.25
51315;BME280;65787;59.922;10.742;2022-12-18T02:45:58;100771.31;;;-2.12;91.91
51315;BME280;65787;59.922;10.742;2022-12-18T02:48:26;100764.25;;;-2.12;92.39
51315;BME280;65787;59.922;10.742;2022-12-18T02:51:14;100760.06;;;-2.15;92.18
51315;BME280;65787;59.922;10.742;2022-12-18T02:53:56;100764.47;;;-2.15;92.01
51315;BME280;65787;59.922;10.742;2022-12-18T02:56:26;100756.69;;;-2.17;92.65
51315;BME280;65787;59.922;10.742;2022-12-18T02:59:08;100751.44;;;-2.17;91.86
51315;BME280;65787;59.922;10.742;2022-12-18T03:01:43;100751.53;;;-2.18;91.84
51315;BME280;65787;59.922;10.742;2022-12-18T03:04:18;100744.56;;;-2.19;92.25
51315;BME280;65787;59.922;10.742;2022-12-18T03:06:48;100746.34;;;-2.20;91.19
51315;BME280;65787;59.922;10.742;2022-12-18T03:09:19;100737.53;;;-2.19;91.82
51315;BME280;65787;59.922;10.742;2022-12-18T03:11:48;100745.44;;;-2.19;91.53
51315;BME280;65787;59.922;10.742;2022-12-18T03:14:32;100749.31;;;-2.24;90.94
51315;BME280;65787;59.922;10.742;2022-12-18T03:16:59;100742.88;;;-2.33;91.18
51315;BME280;65787;59.922;10.742;2022-12-18T03:19:26;100740.25;;;-2.33;91.49
51315;BME280;65787;59.922;10.742;2022-12-18T03:21:54;100746.44;;;-2.34;91.92
51315;BME280;65787;59.922;10.742;2022-12-18T03:24:20;100747.50;;;-2.37;91.65
51315;BME280;65787;59.922;10.742;2022-12-18T03:26:47;100743.09;;;-2.36;91.84
51315;BME280;65787;59.922;10.742;2022-12-18T03:29:33;100742.97;;;-2.35;91.85
51315;BME280;65787;59.922;10.742;2022-12-18T03:32:10;100725.31;;;-2.33;91.90
51315;BME280;65787;59.922;10.742;2022-12-18T03:34:37;100728.66;;;-2.30;92.08
51315;BME280;65787;59.922;10.742;2022-12-18T03:37:04;100728.16;;;-2.36;91.70
51315;BME280;65787;59.922;10.742;2022-12-18T03:39:29;100728.03;;;-2.34;92.26
51315;BME280;65787;59.922;10.742;2022-12-18T03:42:01;100715.66;;;-2.32;92.52
51315;BME280;65787;59.922;10.742;2022-12-18T03:44:29;100715.41;;;-2.29;92.52
51315;BME280;65787;59.922;10.742;2022-12-18T03:47:08;100713.53;;;-2.27;92.56
51315;BME280;65787;59.922;10.742;2022-12-18T03:49:41;100722.03;;;-2.23;91.97
51315;BME280;65787;59.922;10.742;2022-12-18T03:52:13;100723.41;;;-2.18;92.31
51315;BME280;65787;59.922;10.742;2022-12-18T03:54:41;100731.31;;;-2.18;92.39
51315;BME280;65787;59.922;10.742;2022-12-18T03:57:21;100731.22;;;-2.16;92.50
51315;BME280;65787;59.922;10.742;2022-12-18T03:59:47;100729.41;;;-2.16;92.80
51315;BME280;65787;59.922;10.742;2022-12-18T04:02:15;100732.69;;;-2.12;92.29
51315;BME280;65787;59.922;10.742;2022-12-18T04:04:41;100739.53;;;-2.09;92.45
51315;BME280;65787;59.922;10.742;2022-12-18T04:07:07;100744.56;;;-2.06;92.70
51315;BME280;65787;59.922;10.742;2022-12-18T04:09:33;100743.63;;;-2.05;92.70
51315;BME280;65787;59.922;10.742;2022-12-18T04:11:59;100740.06;;;-2.04;92.61
51315;BME280;65787;59.922;10.742;2022-12-18T04:14:29;100733.84;;;-2.03;92.25
51315;BME280;65787;59.922;10.742;2022-12-18T04:16:54;100735.41;;;-2.01;92.72
51315;BME280;65787;59.922;10.742;2022-12-18T04:19:19;100737.94;;;-1.99;91.77
51315;BME280;65787;59.922;10.742;2022-12-18T04:21:45;100727.22;;;-1.96;92.79
51315;BME280;65787;59.922;10.742;2022-12-18T04:24:10;100740.03;;;-1.91;91.75
51315;BME280;65787;59.922;10.742;2022-12-18T04:26:35;100719.75;;;-1.89;92.09
51315;BME280;65787;59.922;10.742;2022-12-18T04:29:01;100732.78;;;-1.88;91.63
51315;BME280;65787;59.922;10.742;2022-12-18T04:31:26;100741.53;;;-1.87;92.31
51315;BME280;65787;59.922;10.742;2022-12-18T04:33:51;100746.66;;;-1.86;91.33
51315;BME280;65787;59.922;10.742;2022-12-18T04:36:17;100739.53;;;-1.84;91.30
51315;BME280;65787;59.922;10.742;2022-12-18T04:38:42;100749.09;;;-1.83;92.05
51315;BME280;65787;59.922;10.742;2022-12-18T04:41:08;100739.31;;;-1.81;91.80
51315;BME280;65787;59.922;10.742;2022-12-18T04:43:33;100723.41;;;-1.79;91.33
51315;BME280;65787;59.922;10.742;2022-12-18T04:46:05;100724.22;;;-1.79;91.82
51315;BME280;65787;59.922;10.742;2022-12-18T04:48:31;100729.28;;;-1.76;91.66
51315;BME280;65787;59.922;10.742;2022-12-18T04:50:56;100726.31;;;-1.71;92.17
51315;BME280;65787;59.922;10.742;2022-12-18T04:53:21;100737.63;;;-1.69;91.57
51315;BME280;65787;59.922;10.742;2022-12-18T04:55:47;100738.56;;;-1.70;91.02
51315;BME280;65787;59.922;10.742;2022-12-18T04:58:12;100739.38;;;-1.69;91.40
51315;BME280;65787;59.922;10.742;2022-12-18T05:00:37;100733.81;;;-1.65;91.11
51315;BME280;65787;59.922;10.742;2022-12-18T05:03:03;100729.38;;;-1.64;91.42
51315;BME280;65787;59.922;10.742;2022-12-18T05:05:28;100729.28;;;-1.63;91.89
51315;BME280;65787;59.922;10.742;2022-12-18T05:07:53;100721.38;;;-1.63;90.91
51315;BME280;65787;59.922;10.742;2022-12-18T05:10:18;100718.94;;;-1.66;91.43
51315;BME280;65787;59.922;10.742;2022-12-18T05:12:44;100723.38;;;-1.66;91.42
51315;BME280;65787;59.922;10.742;2022-12-18T05:15:26;100728.66;;;-1.66;91.40
51315;BME280;65787;59.922;10.742;2022-12-18T05:17:52;100742.53;;;-1.64;91.82
51315;BME280;65787;59.922;10.742;2022-12-18T05:20:17;100753.59;;;-1.59;92.35
51315;BME280;65787;59.922;10.742;2022-12-18T05:22:43;100755.06;;;-1.55;92.57
51315;BME280;65787;59.922;10.742;2022-12-18T05:25:08;100741.69;;;-1.52;91.89
51315;BME280;65787;59.922;10.742;2022-12-18T05:27:34;100747.69;;;-1.50;92.66
51315;BME280;65787;59.922;10.742;2022-12-18T05:29:59;100748.53;;;-1.49;91.64
51315;BME280;65787;59.922;10.742;2022-12-18T05:32:24;100744.09;;;-1.49;92.56
51315;BME280;65787;59.922;10.742;2022-12-18T05:34:49;100747.44;;;-1.47;92.28
51315;BME280;65787;59.922;10.742;2022-12-18T05:37:15;100744.72;;;-1.45;91.87
51315;BME280;65787;59.922;10.742;2022-12-18T05:39:42;100747.34;;;-1.45;92.37
51315;BME280;65787;59.922;10.742;2022-12-18T05:42:07;100746.41;;;-1.44;91.62
51315;BME280;65787;59.922;10.742;2022-12-18T05:44:33;100748.81;;;-1.41;92.34
51315;BME280;65787;59.922;10.742;2022-12-18T05:46:58;100747.97;;;-1.42;91.40
51315;BME280;65787;59.922;10.742;2022-12-18T05:49:24;100761.38;;;-1.45;91.94
51315;BME280;65787;59.922;10.742;2022-12-18T05:51:49;100751.56;;;-1.43;91.84
51315;BME280;65787;59.922;10.742;2022-12-18T05:54:14;100758.50;;;-1.42;91.79
51315;BME280;65787;59.922;10.742;2022-12-18T05:56:40;100748.69;;;-1.40;91.50
51315;BME280;65787;59.922;10.742;2022-12-18T05:59:05;100753.88;;;-1.38;92.03
51315;BME280;65787;59.922;10.742;2022-12-18T06:01:30;100758.50;;;-1.42;91.94
51315;BME280;65787;59.922;10.742;2022-12-18T06:03:56;100762.94;;;-1.42;91.39
51315;BME280;65787;59.922;10.742;2022-12-18T06:06:23;100761.25;;;-1.43;92.15
51315;BME280;65787;59.922;10.742;2022-12-18T06:08:49;100752.41;;;-1.42;91.84
51315;BME280;65787;59.922;10.742;2022-12-18T06:11:16;100763.78;;;-1.42;92.72
51315;BME280;65787;59.922;10.742;2022-12-18T06:13:41;100769.88;;;-1.41;92.29
51315;BME280;65787;59.922;10.742;2022-12-18T06:16:07;100772.41;;;-1.40;91.74
51315;BME280;65787;59.922;10.742;2022-12-18T06:18:33;100770.41;;;-1.36;92.50
51315;BME280;65787;59.922;10.742;2022-12-18T06:20:58;100770.19;;;-1.33;92.50
51315;BME280;65787;59.922;10.742;2022-12-18T06:23:24;100779.03;;;-1.34;92.01
51315;BME280;65787;59.922;10.742;2022-12-18T06:25:50;100795.56;;;-1.32;92.13
51315;BME280;65787;59.922;10.742;2022-12-18T06:28:15;100786.09;;;-1.34;91.69
51315;BME280;65787;59.922;10.742;2022-12-18T06:30:43;100786.22;;;-1.36;91.73
51315;BME280;65787;59.922;10.742;2022-12-18T06:33:08;100800.25;;;-1.35;91.99
51315;BME280;65787;59.922;10.742;2022-12-18T06:35:34;100802.75;;;-1.34;92.12
51315;BME280;65787;59.922;10.742;2022-12-18T06:38:00;100801.81;;;-1.33;91.81
51315;BME280;65787;59.922;10.742;2022-12-18T06:40:25;100803.47;;;-1.32;91.27
51315;BME280;65787;59.922;10.742;2022-12-18T06:42:51;100797.16;;;-1.29;91.76
51315;BME280;65787;59.922;10.742;2022-12-18T06:45:16;100780.38;;;-1.28;91.23
51315;BME280;65787;59.922;10.742;2022-12-18T06:47:41;100782.09;;;-1.27;91.74
51315;BME280;65787;59.922;10.742;2022-12-18T06:50:07;100783.66;;;-1.25;91.25
51315;BME280;65787;59.922;10.742;2022-12-18T06:52:33;100787.16;;;-1.24;91.04
51315;BME280;65787;59.922;10.742;2022-12-18T06:55:00;100781.00;;;-1.25;91.41
51315;BME280;65787;59.922;10.742;2022-12-18T06:57:25;100786.19;;;-1.23;91.85
51315;BME280;65787;59.922;10.742;2022-12-18T06:59:51;100786.91;;;-1.21;92.01
51315;BME280;65787;59.922;10.742;2022-12-18T07:02:17;100788.50;;;-1.19;91.78
51315;BME280;65787;59.922;10.742;2022-12-18T07:04:42;100788.38;;;-1.17;91.65
51315;BME280;65787;59.922;10.742;2022-12-18T07:07:07;100795.34;;;-1.16;91.08
51315;BME280;65787;59.922;10.742;2022-12-18T07:09:33;100797.97;;;-1.16;91.50
51315;BME280;65787;59.922;10.742;2022-12-18T07:11:58;100809.34;;;-1.15;91.81
51315;BME280;65787;59.922;10.742;2022-12-18T07:14:23;100807.56;;;-1.15;90.92
51315;BME280;65787;59.922;10.742;2022-12-18T07:16:49;100814.63;;;-1.15;91.69
51315;BME280;65787;59.922;10.742;2022-12-18T07:19:14;100809.44;;;-1.17;91.33
51315;BME280;65787;59.922;10.742;2022-12-18T07:21:39;100802.72;;;-1.21;91.74
51315;BME280;65787;59.922;10.742;2022-12-18T07:24:05;100789.06;;;-1.26;91.10
51315;BME280;65787;59.922;10.742;2022-12-18T07:26:30;100787.56;;;-1.30;91.46
51315;BME280;65787;59.922;10.742;2022-12-18T07:28:55;100802.13;;;-1.38;91.29
51315;BME280;65787;59.922;10.742;2022-12-18T07:31:22;100804.47;;;-1.46;90.94
51315;BME280;65787;59.922;10.742;2022-12-18T07:33:48;100811.31;;;-1.56;91.75
51315;BME280;65787;59.922;10.742;2022-12-18T07:36:14;100822.50;;;-1.65;91.65
51315;BME280;65787;59.922;10.742;2022-12-18T07:38:39;100838.31;;;-1.65;92.53
51315;BME280;65787;59.922;10.742;2022-12-18T07:41:14;100838.06;;;-1.62;92.89
51315;BME280;65787;59.922;10.742;2022-12-18T07:43:40;100842.91;;;-1.56;92.83
51315;BME280;65787;59.922;10.742;2022-12-18T07:46:06;100845.44;;;-1.54;93.01
51315;BME280;65787;59.922;10.742;2022-12-18T07:48:31;100833.63;;;-1.62;92.33
51315;BME280;65787;59.922;10.742;2022-12-18T07:51:00;100839.03;;;-1.76;92.12
51315;BME280;65787;59.922;10.742;2022-12-18T07:53:26;100854.47;;;-1.97;91.93
51315;BME280;65787;59.922;10.742;2022-12-18T07:55:58;100859.09;;;-2.13;91.39
51315;BME280;65787;59.922;10.742;2022-12-18T07:58:24;100868.63;;;-2.25;91.36
51315;BME280;65787;59.922;10.742;2022-12-18T08:00:49;100869.88;;;-2.31;92.14
51315;BME280;65787;59.922;10.742;2022-12-18T08:03:14;100886.41;;;-2.29;93.07
51315;BME280;65787;59.922;10.742;2022-12-18T08:05:40;100883.22;;;-2.34;93.06
51315;BME280;65787;59.922;10.742;2022-12-18T08:08:05;100871.72;;;-2.46;93.15
51315;BME280;65787;59.922;10.742;2022-12-18T08:10:30;100865.84;;;-2.64;92.77
51315;BME280;65787;59.922;10.742;2022-12-18T08:12:55;100863.44;;;-2.67;93.64
51315;BME280;65787;59.922;10.742;2022-12-18T08:15:21;100874.69;;;-2.65;94.03
51315;BME280;65787;59.922;10.742;2022-12-18T08:17:46;100867.22;;;-2.71;94.07
51315;BME280;65787;59.922;10.742;2022-12-18T08:20:11;100854.16;;;-2.73;94.02
51315;BME280;65787;59.922;10.742;2022-12-18T08:22:38;100872.41;;;-2.84;93.75
51315;BME280;65787;59.922;10.742;2022-12-18T08:25:04;100868.75;;;-2.96;93.42
51315;BME280;65787;59.922;10.742;2022-12-18T08:27:29;100881.72;;;-3.07;93.86
51315;BME280;65787;59.922;10.742;2022-12-18T08:29:55;100900.66;;;-3.16;93.21
51315;BME280;65787;59.922;10.742;2022-12-18T08:32:20;100911.56;;;-3.22;93.97
51315;BME280;65787;59.922;10.742;2022-12-18T08:34:46;100930.53;;;-3.17;93.83
51315;BME280;65787;59.922;10.742;2022-12-18T08:37:11;100918.78;;;-3.12;94.82
51315;BME280;65787;59.922;10.742;2022-12-18T08:39:36;100931.25;;;-3.15;94.18
51315;BME280;65787;59.922;10.742;2022-12-18T08:42:01;100935.00;;;-3.05;95.17
51315;BME280;65787;59.922;10.742;2022-12-18T08:44:46;100932.53;;;-2.79;96.28
51315;BME280;65787;59.922;10.742;2022-12-18T08:47:11;100933.25;;;-2.48;96.50
51315;BME280;65787;59.922;10.742;2022-12-18T08:49:37;100942.75;;;-2.19;97.11
51315;BME280;65787;59.922;10.742;2022-12-18T08:52:02;100938.31;;;-1.91;97.13
51315;BME280;65787;59.922;10.742;2022-12-18T08:54:27;100920.31;;;-1.71;96.85
51315;BME280;65787;59.922;10.742;2022-12-18T08:56:53;100914.44;;;-1.62;97.63
51315;BME280;65787;59.922;10.742;2022-12-18T08:59:18;100912.16;;;-1.54;96.69
51315;BME280;65787;59.922;10.742;2022-12-18T09:01:44;100920.56;;;-1.49;97.58
51315;BME280;65787;59.922;10.742;2022-12-18T09:04:09;100932.16;;;-1.51;97.08
51315;BME280;65787;59.922;10.742;2022-12-18T09:06:34;100932.66;;;-1.59;96.85
51315;BME280;65787;59.922;10.742;2022-12-18T09:09:00;100929.59;;;-1.66;96.14
51315;BME280;65787;59.922;10.742;2022-12-18T09:11:26;100927.47;;;-1.73;95.71
51315;BME280;65787;59.922;10.742;2022-12-18T09:13:52;100934.84;;;-1.79;96.19
51315;BME280;65787;59.922;10.742;2022-12-18T09:16:18;100942.72;;;-1.79;96.46
51315;BME280;65787;59.922;10.742;2022-12-18T09:18:44;100942.22;;;-1.84;95.76
51315;BME280;65787;59.922;10.742;2022-12-18T09:21:11;100958.63;;;-1.93;95.04
51315;BME280;65787;59.922;10.742;2022-12-18T09:23:37;100964.06;;;-1.96;95.25
51315;BME280;65787;59.922;10.742;2022-12-18T09:26:02;100976.00;;;-1.90;95.95
51315;BME280;65787;59.922;10.742;2022-12-18T09:28:27;100984.06;;;-1.93;95.58
51315;BME280;65787;59.922;10.742;2022-12-18T09:30:53;100989.56;;;-1.97;95.35
51315;BME280;65787;59.922;10.742;2022-12-18T09:33:18;100994.81;;;-1.97;95.28
51315;BME280;65787;59.922;10.742;2022-12-18T09:35:44;101003.22;;;-2.04;94.90
51315;BME280;65787;59.922;10.742;2022-12-18T09:38:14;101001.31;;;-2.02;95.67
51315;BME280;65787;59.922;10.742;2022-12-18T09:40:46;100995.94;;;-2.01;95.63
51315;BME280;65787;59.922;10.742;2022-12-18T09:43:17;101003.75;;;-1.99;96.32
51315;BME280;65787;59.922;10.742;2022-12-18T09:45:44;101010.00;;;-1.87;96.77
51315;BME280;65787;59.922;10.742;2022-12-18T09:48:14;101012.97;;;-1.79;96.40
51315;BME280;65787;59.922;10.742;2022-12-18T09:50:42;101010.59;;;-1.69;96.07
51315;BME280;65787;59.922;10.742;2022-12-18T09:53:11;101010.38;;;-1.66;95.72
51315;BME280;65787;59.922;10.742;2022-12-18T09:55:39;101018.94;;;-1.63;95.38
51315;BME280;65787;59.922;10.742;2022-12-18T09:58:16;101025.47;;;-1.56;95.60
51315;BME280;65787;59.922;10.742;2022-12-18T10:00:44;101036.34;;;-1.47;95.40
51315;BME280;65787;59.922;10.742;2022-12-18T10:03:10;101039.53;;;-1.42;95.77
51315;BME280;65787;59.922;10.742;2022-12-18T10:08:25;101046.72;;;-1.31;95.46
51315;BME280;65787;59.922;10.742;2022-12-18T10:11:03;101060.53;;;-1.28;94.69
51315;BME280;65787;59.922;10.742;2022-12-18T10:13:38;101062.94;;;-1.25;94.11
51315;BME280;65787;59.922;10.742;2022-12-18T10:16:15;101074.13;;;-1.21;94.48
51315;BME280;65787;59.922;10.742;2022-12-18T10:18:59;101081.19;;;-1.22;93.83
51315;BME280;65787;59.922;10.742;2022-12-18T10:26:29;101110.94;;;-1.47;92.45
51315;BME280;65787;59.922;10.742;2022-12-18T10:28:56;101105.47;;;-1.44;92.46
51315;BME280;65787;59.922;10.742;2022-12-18T10:31:22;101120.53;;;-1.46;92.39
51315;BME280;65787;59.922;10.742;2022-12-18T10:33:48;101113.19;;;-1.41;93.18
51315;BME280;65787;59.922;10.742;2022-12-18T10:36:13;101130.06;;;-1.30;92.28
51315;BME280;65787;59.922;10.742;2022-12-18T10:38:39;101136.72;;;-1.25;91.53
51315;BME280;65787;59.922;10.742;2022-12-18T10:41:06;101131.25;;;-1.22;91.63
51315;BME280;65787;59.922;10.742;2022-12-18T10:43:37;101139.41;;;-1.12;92.74
51315;BME280;65787;59.922;10.742;2022-12-18T10:50:59;101126.72;;;-0.80;93.05
51315;BME280;65787;59.922;10.742;2022-12-18T10:53:26;101136.66;;;-0.70;92.80
51315;BME280;65787;59.922;10.742;2022-12-18T10:55:52;101144.78;;;-0.61;92.02
51315;BME280;65787;59.922;10.742;2022-12-18T10:58:28;101139.16;;;-0.56;91.47
51315;BME280;65787;59.922;10.742;2022-12-18T11:03:45;101142.44;;;-0.52;90.92
51315;BME280;65787;59.922;10.742;2022-12-18T11:06:11;101154.50;;;-0.48;90.58
51315;BME280;65787;59.922;10.742;2022-12-18T11:08:38;101150.78;;;-0.46;90.00
51315;BME280;65787;59.922;10.742;2022-12-18T11:11:04;101146.88;;;-0.40;90.33
51315;BME280;65787;59.922;10.742;2022-12-18T11:13:32;101136.97;;;-0.36;90.29
51315;BME280;65787;59.922;10.742;2022-12-18T11:15:57;101145.28;;;-0.30;89.78
51315;BME280;65787;59.922;10.742;2022-12-18T11:18:30;101138.75;;;-0.24;89.88
51315;BME280;65787;59.922;10.742;2022-12-18T11:20:58;101147.16;;;-0.06;89.04
51315;BME280;65787;59.922;10.742;2022-12-18T11:23:25;101151.16;;;1.44;85.96
51315;BME280;65787;59.922;10.742;2022-12-18T11:25:58;101148.06;;;2.73;77.80
51315;BME280;65787;59.922;10.742;2022-12-18T11:31:09;101157.50;;;3.61;72.96
51315;BME280;65787;59.922;10.742;2022-12-18T11:33:41;101156.53;;;3.62;71.70
51315;BME280;65787;59.922;10.742;2022-12-18T11:36:08;101159.69;;;3.56;72.24
51315;BME280;65787;59.922;10.742;2022-12-18T11:38:35;101165.91;;;3.45;71.64
51315;BME280;65787;59.922;10.742;2022-12-18T11:41:06;101182.69;;;3.25;73.12
51315;BME280;65787;59.922;10.742;2022-12-18T11:43:41;101189.00;;;2.25;75.56
51315;BME280;65787;59.922;10.742;2022-12-18T11:46:10;101189.13;;;1.90;78.17
51315;BME280;65787;59.922;10.742;2022-12-18T11:48:44;101186.47;;;2.12;77.12
51315;BME280;65787;59.922;10.742;2022-12-18T11:51:15;101194.31;;;2.14;77.93
51315;BME280;65787;59.922;10.742;2022-12-18T11:53:44;101205.03;;;2.12;77.21
51315;BME280;65787;59.922;10.742;2022-12-18T12:09:23;101250.06;;;1.90;76.73
51315;BME280;65787;59.922;10.742;2022-12-18T12:14:31;101260.00;;;1.75;77.52
51315;BME280;65787;59.922;10.742;2022-12-18T12:17:11;101270.94;;;1.70;77.63
51315;BME280;65787;59.922;10.742;2022-12-18T12:19:47;101279.34;;;1.64;78.07
51315;BME280;65787;59.922;10.742;2022-12-18T12:22:19;101275.22;;;1.49;78.43
51315;BME280;65787;59.922;10.742;2022-12-18T12:25:00;101283.31;;;1.34;79.15
51315;BME280;65787;59.922;10.742;2022-12-18T12:27:51;101285.00;;;1.11;80.55
51315;BME280;65787;59.922;10.742;2022-12-18T12:33:18;101289.25;;;0.77;81.62
51315;BME280;65787;59.922;10.742;2022-12-18T12:35:50;101296.78;;;0.57;82.16
51315;BME280;65787;59.922;10.742;2022-12-18T12:38:20;101292.91;;;0.50;82.40
51315;BME280;65787;59.922;10.742;2022-12-18T12:40:58;101302.31;;;0.42;82.46
51315;BME280;65787;59.922;10.742;2022-12-18T12:43:43;101319.25;;;0.26;83.13
51315;BME280;65787;59.922;10.742;2022-12-18T12:46:10;101312.78;;;0.05;84.41
51315;BME280;65787;59.922;10.742;2022-12-18T12:51:03;101330.19;;;-0.18;85.46
51315;BME280;65787;59.922;10.742;2022-12-18T12:53:34;101320.25;;;-0.28;86.21
51315;BME280;65787;59.922;10.742;2022-12-18T12:56:01;101326.88;;;-0.35;86.14
51315;BME280;65787;59.922;10.742;2022-12-18T13:03:49;101345.06;;;-0.57;86.52
51315;BME280;65787;59.922;10.742;2022-12-18T13:06:27;101357.88;;;-0.66;87.16
51315;BME280;65787;59.922;10.742;2022-12-18T13:08:58;101373.16;;;-0.71;87.14
51315;BME280;65787;59.922;10.742;2022-12-18T13:14:24;101397.09;;;-0.74;87.51
51315;BME280;65787;59.922;10.742;2022-12-18T13:16:51;101398.44;;;-0.81;87.60
51315;BME280;65787;59.922;10.742;2022-12-18T13:19:23;101406.53;;;-0.84;87.52
51315;BME280;65787;59.922;10.742;2022-12-18T13:21:54;101410.47;;;-0.91;87.86
51315;BME280;65787;59.922;10.742;2022-12-18T13:24:27;101414.00;;;-0.91;87.62
51315;BME280;65787;59.922;10.742;2022-12-18T13:26:53;101412.19;;;-0.90;88.90
51315;BME280;65787;59.922;10.742;2022-12-18T13:32:17;101428.56;;;-0.85;88.40
51315;BME280;65787;59.922;10.742;2022-12-18T13:34:43;101426.88;;;-0.86;89.47
51315;BME280;65787;59.922;10.742;2022-12-18T13:39:53;101429.91;;;-0.92;89.37
51315;BME280;65787;59.922;10.742;2022-12-18T13:45:35;101430.06;;;-1.10;88.41
51315;BME280;65787;59.922;10.742;2022-12-18T13:48:02;101455.41;;;-1.22;89.24